Terminal Aerodrome Forecast
Issued by NWS Mt. Holly, NJ

Home | Current Version | Previous Version | Text Only | Print | Product List | Glossary On
Versions: 1 2 3 4 5 6 7 8 9 10 11 12 13 14 15
000
FTUS41 KPHI 290500
TAFRDG
TAF
KRDG 290530Z 2906/3006 32007KT P6SM SCT035 BKN100
     FM290900 35007KT P6SM SCT050 BKN150
     FM291600 32005KT P6SM FEW050 BKN250
     FM300100 35005KT P6SM BKN100=

USA.gov is the U.S. government's official web portal to all federal, state and local government web resources and services.